Time;durP1;ratioP1;P1;durP2;ratioP2;P2;SDS_P1;SDS_P2;PMS_P1;PMS_P2;Temp;Humidity;BMP_temperature;BMP_pressure;BME280_temperature;BME280_humidity;BME280_pressure;Samples;Min_cycle;Max_cycle;Signal;HPM_P1;HPM_P2
2022/06/14 00:03:39;;;;;;;2.15;0.80;;;20.00;39.50;;;17.91;42.63;101686.81;12243049;19;20011;-77
2022/06/14 00:07:41;;;;;;;0.75;0.60;;;19.90;39.60;;;17.87;42.52;101687.13;12238911;19;20026;-77
2022/06/14 00:11:46;;;;;;;1.17;0.63;;;19.90;39.70;;;17.80;42.82;101678.81;12237247;19;20007;-77
2022/06/14 00:15:49;;;;;;;1.10;0.57;;;19.70;39.70;;;17.76;42.74;101700.22;12236634;19;20035;-77
2022/06/14 00:19:51;;;;;;;1.10;0.68;;;19.70;39.70;;;17.35;42.88;101649.31;12241660;19;20011;-76
2022/06/14 00:23:52;;;;;;;0.90;0.60;;;19.60;39.80;;;17.48;43.09;101686.28;12237869;19;20029;-77
2022/06/14 00:27:54;;;;;;;1.77;0.57;;;19.60;39.90;;;17.43;43.13;101707.72;12237950;19;20010;-77
2022/06/14 00:31:56;;;;;;;1.40;0.65;;;19.50;39.80;;;17.32;43.34;101693.56;12238279;19;20525;-77
2022/06/14 00:36:17;;;;;;;0.73;0.60;;;19.40;39.80;;;17.31;43.22;101707.72;12236904;19;20535;-77
2022/06/14 00:40:25;;;;;;;1.23;0.50;;;19.30;39.80;;;17.09;43.63;101680.13;12238104;19;20022;-77
2022/06/14 00:44:29;;;;;;;0.95;0.55;;;19.20;39.90;;;17.16;43.62;101694.59;12239403;19;20472;-77
2022/06/14 00:48:32;;;;;;;0.63;0.60;;;19.20;40.00;;;17.07;43.40;101692.59;12232008;19;20354;-77
2022/06/14 00:52:53;;;;;;;2.55;0.60;;;19.10;40.00;;;17.07;43.53;101703.16;12238926;19;20011;-77
2022/06/14 00:57:27;;;;;;;1.02;0.60;;;19.00;40.10;;;17.07;43.45;101720.78;12247390;19;20017;-77
2022/06/14 01:01:35;;;;;;;0.52;0.47;;;19.00;39.80;;;16.71;43.49;101667.66;12249042;19;20081;-77
2022/06/14 01:06:07;;;;;;;1.80;0.90;;;18.90;39.80;;;16.53;43.58;101640.72;12246086;19;20528;-77
2022/06/14 01:10:18;;;;;;;1.75;0.75;;;18.90;39.70;;;16.88;43.62;101697.41;12237860;19;20048;-76
2022/06/14 01:14:32;;;;;;;1.20;0.60;;;19.00;39.70;;;16.86;43.47;101691.38;12250194;19;20006;-77
2022/06/14 01:18:36;;;;;;;3.03;0.65;;;18.90;39.70;;;16.85;43.43;101692.31;12250763;19;20038;-77
2022/06/14 01:22:39;;;;;;;2.58;0.60;;;18.80;39.60;;;16.89;43.32;101709.66;12245766;19;20014;-77
2022/06/14 01:26:40;;;;;;;0.52;0.52;;;18.80;39.70;;;16.80;43.49;101713.75;12240126;19;20046;-77
2022/06/14 01:30:47;;;;;;;1.38;0.70;;;18.80;39.50;;;16.70;43.39;101702.91;12238383;19;20056;-77
2022/06/14 01:34:56;;;;;;;0.73;0.70;;;18.80;39.60;;;16.75;43.37;101715.81;12238553;19;20042;-77
2022/06/14 01:39:01;;;;;;;1.27;0.70;;;18.80;39.60;;;16.69;43.51;101717.06;12245252;19;20018;-77
2022/06/14 01:43:41;;;;;;;1.90;0.68;;;18.70;39.40;;;16.46;43.57;101702.72;12247574;19;20505;-77
2022/06/14 01:48:16;;;;;;;0.65;0.50;;;18.60;39.40;;;16.45;43.60;101734.47;12243996;19;20027;-77
2022/06/14 01:52:42;;;;;;;0.50;0.50;;;18.50;39.30;;;16.28;43.67;101707.38;12246543;19;20086;-77
2022/06/14 01:57:03;;;;;;;2.38;0.82;;;18.40;39.40;;;16.15;43.69;101702.03;12243787;19;20240;-77
2022/06/14 02:01:31;;;;;;;2.72;0.70;;;18.30;39.30;;;16.20;43.69;101729.88;12247767;19;20010;-77
2022/06/14 02:05:34;;;;;;;1.65;0.63;;;18.30;39.50;;;16.08;43.39;101726.22;12241488;19;20489;-77
2022/06/14 02:09:55;;;;;;;1.20;0.80;;;18.30;39.40;;;16.24;43.74;101758.59;12246168;19;20480;-77
2022/06/14 02:14:23;;;;;;;1.95;0.50;;;18.20;39.50;;;16.22;43.63;101755.19;12242503;19;20031;-77
2022/06/14 02:18:45;;;;;;;1.17;1.00;;;18.20;39.70;;;16.13;43.73;101761.88;12241692;19;20019;-77
2022/06/14 02:22:57;;;;;;;3.22;0.70;;;18.10;39.60;;;16.07;43.92;101766.72;12244458;19;20006;-77
2022/06/14 02:27:35;;;;;;;1.27;0.60;;;18.40;39.60;;;15.87;43.72;101739.78;12244669;19;20008;-77
2022/06/14 02:31:50;;;;;;;1.92;0.50;;;18.00;39.60;;;15.87;43.89;101758.22;12238881;19;20031;-77
2022/06/14 02:36:02;;;;;;;2.00;1.02;;;18.00;39.60;;;15.37;43.83;101667.31;12240809;19;20021;-77
2022/06/14 02:40:23;;;;;;;1.08;0.60;;;17.90;39.60;;;15.84;44.05;101758.41;12247551;19;20018;-77
2022/06/14 02:44:48;;;;;;;1.25;0.80;;;17.90;39.80;;;15.14;44.04;101642.38;12243531;19;20121;-77
2022/06/14 02:48:56;;;;;;;1.07;0.40;;;17.90;39.80;;;15.66;43.91;101734.00;12243113;19;20034;-77
2022/06/14 02:53:28;;;;;;;0.57;0.43;;;18.00;39.70;;;15.84;43.85;101765.47;12242277;19;20010;-77
2022/06/14 02:57:44;;;;;;;2.00;0.50;;;17.80;39.80;;;15.63;44.14;101751.75;12240269;19;20006;-77
2022/06/14 03:02:02;;;;;;;1.60;0.68;;;17.80;39.80;;;15.69;44.29;101761.97;12245587;19;20006;-77
2022/06/14 03:06:53;;;;;;;0.93;0.40;;;17.70;39.90;;;15.69;44.29;101769.88;12239371;19;20002;-77
2022/06/14 03:11:45;;;;;;;0.73;0.70;;;17.70;40.00;;;15.64;44.16;101770.13;12236582;19;20010;-77
2022/06/14 03:16:19;;;;;;;2.00;0.57;;;17.60;40.10;;;15.59;44.42;101771.34;12239659;19;20031;-77
2022/06/14 03:20:39;;;;;;;2.83;0.80;;;17.60;40.20;;;15.61;44.25;101780.00;12242863;19;20006;-77
2022/06/14 03:24:59;;;;;;;2.15;0.50;;;17.60;40.10;;;15.56;44.40;101776.78;12240306;19;20023;-77
2022/06/14 03:29:16;;;;;;;1.15;0.52;;;17.50;40.30;;;15.54;44.33;101768.97;12241225;19;20019;-77
2022/06/14 03:33:59;;;;;;;0.57;0.55;;;17.50;40.20;;;15.56;44.39;101776.78;12240108;19;20018;-77
2022/06/14 03:38:14;;;;;;;1.92;0.60;;;17.50;40.40;;;15.37;44.52;101763.88;12235322;19;20034;-77
2022/06/14 03:42:16;;;;;;;2.47;0.60;;;17.50;40.40;;;15.38;44.54;101778.69;12241086;19;20014;-77
2022/06/14 03:46:21;;;;;;;1.90;0.60;;;17.60;40.40;;;15.45;44.49;101790.59;12238768;19;20045;-77
2022/06/14 03:50:35;;;;;;;1.50;0.80;;;17.70;40.60;;;15.25;44.85;101765.41;12241219;19;20082;-77
2022/06/14 03:55:11;;;;;;;0.75;0.55;;;17.40;40.50;;;15.42;44.77;101793.41;12236266;19;20015;-77
2022/06/14 03:59:44;;;;;;;1.73;0.70;;;17.30;40.70;;;15.43;44.58;101787.19;12239534;19;20035;-77
2022/06/14 04:04:33;;;;;;;1.27;0.77;;;17.40;40.80;;;15.43;44.60;101787.19;12239451;19;20668;-77
2022/06/14 04:09:15;;;;;;;1.40;0.50;;;17.30;40.80;;;15.41;44.79;101789.06;12236950;19;20010;-77
2022/06/14 04:13:33;;;;;;;0.85;0.55;;;17.30;40.90;;;15.33;45.07;101781.59;12217799;19;20018;-77
2022/06/14 04:18:34;;;;;;;3.22;0.90;;;17.30;40.90;;;15.38;45.03;101799.75;12233457;19;20030;-77
2022/06/14 04:23:05;;;;;;;1.55;0.90;;;17.40;41.10;;;15.18;45.06;101771.97;12230658;19;20373;-77
2022/06/14 04:27:32;;;;;;;2.85;0.93;;;17.30;41.00;;;15.35;45.16;101795.53;12222466;19;20480;-77
2022/06/14 04:31:47;;;;;;;1.55;0.75;;;17.30;41.10;;;15.33;45.18;101802.66;12247834;19;20043;-77
2022/06/14 04:36:20;;;;;;;1.23;0.68;;;17.30;41.50;;;15.23;45.17;101778.66;12242919;19;20018;-77
2022/06/14 04:40:31;;;;;;;1.38;0.63;;;17.40;41.30;;;15.33;45.20;101801.81;12247885;19;20340;-77
2022/06/14 04:44:49;;;;;;;3.20;0.70;;;17.30;41.20;;;15.18;45.47;101779.88;12231374;19;20011;-77
2022/06/14 04:49:16;;;;;;;3.65;1.02;;;17.20;41.40;;;15.22;45.53;101773.47;12239227;19;20077;-77
2022/06/14 04:53:29;;;;;;;1.95;0.73;;;17.30;41.50;;;15.37;45.50;101788.38;12244407;19;20026;-77
2022/06/14 04:57:43;;;;;;;3.45;0.70;;;17.30;41.40;;;15.51;45.60;101799.91;12239040;19;20111;-77
2022/06/14 05:02:02;;;;;;;0.85;0.50;;;17.40;41.50;;;15.47;45.52;101772.88;12245333;19;20098;-77
2022/06/14 05:06:22;;;;;;;1.13;0.80;;;17.40;41.50;;;15.74;45.57;101802.03;12241292;19;20468;-77
2022/06/14 05:10:36;;;;;;;3.83;0.85;;;17.50;41.50;;;15.40;45.50;101735.56;12242125;19;20094;-78
2022/06/14 05:14:47;;;;;;;1.95;0.77;;;17.60;41.50;;;15.43;45.42;101734.53;12241055;19;20048;-77
2022/06/14 05:19:10;;;;;;;5.07;0.82;;;17.60;41.40;;;15.93;45.51;101797.38;12236829;19;20022;-77
2022/06/14 05:23:35;;;;;;;2.58;0.77;;;17.70;41.40;;;15.98;45.52;101804.97;12240809;19;20019;-77
2022/06/14 05:27:47;;;;;;;1.60;0.90;;;17.80;41.40;;;16.03;45.37;101796.81;12238180;19;20021;-77
2022/06/14 05:32:20;;;;;;;4.22;0.88;;;17.90;41.20;;;16.09;45.17;101799.06;12237659;19;20031;-78
2022/06/14 05:36:38;;;;;;;1.88;0.80;;;17.90;41.00;;;16.13;45.43;101792.66;12238381;19;20100;-78
2022/06/14 05:40:52;;;;;;;3.38;0.70;;;18.00;41.30;;;16.38;45.52;101807.81;12238844;19;20014;-78
2022/06/14 05:45:00;;;;;;;2.30;0.60;;;18.10;41.00;;;16.34;45.23;101791.34;12239155;19;20472;-78
2022/06/14 05:49:15;;;;;;;2.92;0.70;;;18.20;40.80;;;16.42;45.14;101776.81;12236403;19;20018;-77
2022/06/14 05:53:25;;;;;;;0.85;0.63;;;18.30;40.70;;;16.59;44.97;101803.81;12241613;19;20014;-77
2022/06/14 05:57:34;;;;;;;3.95;0.77;;;18.40;40.50;;;16.71;44.98;101793.44;12236483;19;20488;-77
2022/06/14 06:02:02;;;;;;;1.45;0.85;;;18.50;40.40;;;16.55;45.16;101765.41;12241677;19;20015;-78
2022/06/14 06:06:18;;;;;;;2.47;0.95;;;18.50;40.40;;;16.83;44.93;101797.13;12234014;19;20011;-77
2022/06/14 06:10:29;;;;;;;3.38;0.80;;;18.60;40.30;;;16.67;44.66;101762.94;12239398;19;20002;-78
2022/06/14 06:14:40;;;;;;;1.98;0.80;;;18.70;40.00;;;16.94;44.59;101798.13;12236121;19;20492;-77
2022/06/14 06:19:41;;;;;;;1.58;0.73;;;18.80;40.10;;;16.89;44.59;101775.63;12239400;19;20014;-77
2022/06/14 06:23:57;;;;;;;1.33;0.68;;;18.80;40.10;;;17.22;44.43;101825.34;12231760;19;20039;-77
2022/06/14 06:28:18;;;;;;;5.82;1.00;;;19.10;40.20;;;17.34;44.70;101819.25;12229740;19;20022;-77
2022/06/14 06:32:25;;;;;;;3.65;0.80;;;19.10;40.10;;;17.50;44.29;101823.50;12224937;19;20516;-78
2022/06/14 06:36:44;;;;;;;2.53;0.73;;;19.20;40.00;;;17.51;44.53;101798.81;12236804;19;20018;-77
2022/06/14 06:45:29;;;;;;;1.35;0.73;;;19.50;40.00;;;17.78;44.18;101810.13;12230687;19;20035;-77
2022/06/14 06:49:53;;;;;;;3.67;1.35;;;19.60;40.00;;;18.02;44.06;101826.13;12240443;19;20479;-77
2022/06/14 06:54:12;;;;;;;5.20;1.20;;;19.70;39.70;;;18.13;44.02;101826.22;12234192;19;20427;-77
2022/06/14 06:58:49;;;;;;;1.58;0.85;;;19.80;39.70;;;18.35;44.21;101845.91;12235620;19;20018;-77
2022/06/14 07:03:12;;;;;;;2.78;0.93;;;20.00;39.70;;;18.40;44.02;101832.34;12232098;19;20007;-77
2022/06/14 07:07:27;;;;;;;1.75;0.73;;;20.20;39.50;;;18.58;43.83;101839.81;12235502;19;20642;-77
2022/06/14 07:12:01;;;;;;;4.18;1.13;;;20.30;39.40;;;18.65;43.60;101850.81;12233308;19;20265;-77
2022/06/14 07:16:17;;;;;;;3.00;0.90;;;20.40;39.10;;;18.62;43.62;101839.59;12233991;19;20086;-77
2022/06/14 07:20:48;;;;;;;1.17;0.60;;;20.50;39.10;;;18.65;43.56;101850.81;12234107;19;20014;-77
2022/06/14 07:25:18;;;;;;;1.73;0.63;;;20.50;38.80;;;18.65;43.53;101857.91;12234289;19;20025;-77
2022/06/14 07:29:43;;;;;;;5.22;0.85;;;20.50;38.70;;;18.67;43.68;101821.59;12221472;19;20472;-77
2022/06/14 07:33:45;;;;;;;1.93;0.80;;;20.50;38.90;;;18.94;43.34;101850.56;12233613;19;20010;-76
2022/06/14 07:37:54;;;;;;;1.77;0.65;;;20.70;39.00;;;19.00;43.39;101855.41;12231322;19;20007;-77
2022/06/14 07:42:17;;;;;;;3.83;1.30;;;20.70;38.60;;;18.97;43.03;101852.97;12229643;19;20027;-77
2022/06/14 07:46:34;;;;;;;2.67;0.90;;;20.80;38.60;;;18.88;43.25;101851.00;12234080;19;20042;-77
2022/06/14 07:50:50;;;;;;;2.53;0.90;;;20.80;38.30;;;18.91;42.96;101851.63;12231459;19;20014;-77
2022/06/14 07:55:04;;;;;;;2.38;0.90;;;20.80;38.30;;;18.88;42.91;101851.00;12226843;19;20018;-77
2022/06/14 07:59:13;;;;;;;2.78;0.80;;;20.80;38.30;;;18.77;42.94;101825.31;12235956;19;20018;-77
2022/06/14 08:03:58;;;;;;;2.85;0.93;;;21.00;38.40;;;18.88;42.95;101849.19;12233185;19;20011;-77
2022/06/14 08:08:05;;;;;;;6.78;1.20;;;20.80;38.40;;;18.75;43.16;101824.56;12231371;19;20018;-76
2022/06/14 08:12:22;;;;;;;2.33;0.88;;;20.80;38.40;;;18.95;42.79;101846.94;12226498;19;20345;-77
2022/06/14 08:16:25;;;;;;;1.70;0.80;;;20.80;38.70;;;18.86;42.71;101816.69;12234373;19;20408;-77
2022/06/14 08:20:46;;;;;;;3.33;0.90;;;20.80;38.20;;;19.09;42.64;101854.75;12230143;19;20003;-77
2022/06/14 08:25:06;;;;;;;4.93;1.00;;;20.90;38.00;;;19.04;42.77;101834.81;12235429;19;20026;-76
2022/06/14 08:29:33;;;;;;;2.08;0.98;;;20.90;37.90;;;19.05;42.74;101823.31;12233069;19;20520;-77
2022/06/14 08:34:19;;;;;;;1.35;0.80;;;21.00;38.20;;;19.14;42.29;101843.78;12231480;19;20011;-77
2022/06/14 08:38:43;;;;;;;1.67;0.88;;;21.00;37.70;;;19.19;42.35;101849.59;12229851;19;20338;-77
2022/06/14 08:42:55;;;;;;;2.92;1.13;;;21.10;37.80;;;19.24;42.71;101864.19;12232824;19;20038;-77
2022/06/14 08:47:17;;;;;;;2.85;1.10;;;21.00;38.00;;;19.10;42.53;101835.25;12231839;19;20011;-77
2022/06/14 08:51:39;;;;;;;3.63;1.15;;;21.10;37.80;;;19.24;42.13;101850.09;12231055;19;20418;-77
2022/06/14 08:56:21;;;;;;;3.45;0.88;;;21.10;37.80;;;19.35;42.19;101866.03;12228727;19;20022;-77
2022/06/14 09:00:49;;;;;;;1.40;0.60;;;21.10;37.70;;;19.33;42.24;101867.94;12233828;19;20031;-77
2022/06/14 09:05:25;;;;;;;2.35;0.77;;;21.10;37.40;;;19.27;42.14;101849.03;12234067;19;20069;-77
2022/06/14 09:10:12;;;;;;;3.90;1.00;;;21.20;37.40;;;19.38;41.84;101863.16;12229431;19;20025;-77
2022/06/14 09:14:43;;;;;;;3.70;1.10;;;21.20;37.50;;;19.44;41.88;101868.03;12232966;19;20025;-77
2022/06/14 09:18:54;;;;;;;2.88;0.90;;;21.20;37.20;;;19.49;41.78;101853.56;12234735;19;20010;-77
2022/06/14 09:23:25;;;;;;;1.73;0.70;;;21.30;37.20;;;19.22;41.64;101794.59;12243120;19;20484;-77
2022/06/14 09:28:06;;;;;;;1.63;0.80;;;21.30;37.30;;;19.73;41.48;101835.84;12238591;19;20074;-77
2022/06/14 09:33:13;;;;;;;1.98;0.80;;;21.50;37.30;;;20.13;41.52;101851.34;12238032;19;20081;-77
2022/06/14 09:38:07;;;;;;;2.60;0.80;;;21.60;37.40;;;20.37;41.28;101853.06;12240882;19;20021;-77
2022/06/14 09:42:55;;;;;;;3.28;1.00;;;21.80;36.80;;;20.48;40.82;101858.34;12231138;19;20228;-77
2022/06/14 09:47:14;;;;;;;3.22;0.80;;;22.00;36.50;;;20.49;40.77;101854.72;12239980;19;20002;-77
2022/06/14 09:52:17;;;;;;;1.73;0.60;;;22.10;36.30;;;20.51;40.47;101855.47;12237308;19;20015;-77
2022/06/14 09:56:29;;;;;;;1.60;0.60;;;22.20;36.00;;;20.48;40.38;101866.31;12239208;19;20011;-77
2022/06/14 10:00:59;;;;;;;2.28;0.50;;;22.20;35.90;;;20.40;40.52;101863.44;12240285;19;20048;-77
2022/06/14 10:06:17;;;;;;;1.13;0.65;;;22.20;35.70;;;20.37;40.77;101861.84;12242227;19;20015;-77
2022/06/14 10:10:41;;;;;;;2.28;0.68;;;22.20;36.10;;;20.31;40.12;101865.84;12232557;19;20014;-77
2022/06/14 10:15:15;;;;;;;1.90;0.70;;;22.20;36.00;;;20.28;40.34;101868.72;12241550;19;20014;-77
2022/06/14 10:19:43;;;;;;;1.50;0.70;;;22.10;35.80;;;20.08;40.37;101834.94;12240447;19;20057;-77
2022/06/14 10:23:56;;;;;;;5.97;1.00;;;22.10;36.10;;;20.18;40.61;101865.09;12240650;19;20018;-77
2022/06/14 10:28:32;;;;;;;1.73;0.60;;;22.10;36.10;;;20.01;40.66;101852.28;12235084;19;20024;-77
2022/06/14 10:33:22;;;;;;;1.85;0.88;;;22.00;36.20;;;20.13;40.47;101861.97;12239444;19;20018;-77
2022/06/14 10:37:51;;;;;;;1.58;0.60;;;22.00;36.30;;;20.14;40.69;101855.69;12238316;19;20018;-77
2022/06/14 10:42:25;;;;;;;5.57;1.23;;;22.00;36.40;;;20.16;40.21;101851.09;12240260;19;20017;-76
2022/06/14 10:46:39;;;;;;;1.08;0.70;;;22.00;36.00;;;20.07;40.29;101830.63;12232966;19;20085;-76
2022/06/14 10:51:08;;;;;;;2.17;0.85;;;22.00;35.90;;;20.28;40.25;101839.56;12232743;19;20761;-77
2022/06/14 10:55:17;;;;;;;3.33;0.82;;;22.00;36.10;;;20.45;40.52;101855.94;12232435;19;20476;-77
2022/06/14 10:59:34;;;;;;;2.45;1.02;;;22.10;36.40;;;20.57;40.20;101854.16;12236787;19;20023;-76
2022/06/14 11:04:08;;;;;;;2.08;0.60;;;22.20;36.10;;;20.73;39.95;101863.41;12236638;19;20014;-77
2022/06/14 11:08:21;;;;;;;2.03;0.65;;;22.30;36.20;;;20.77;40.05;101846.28;12236027;19;20058;-77
2022/06/14 11:12:56;;;;;;;1.88;0.77;;;22.50;35.90;;;20.91;39.99;101846.97;12237368;19;20048;-77
2022/06/14 11:17:38;;;;;;;2.30;0.90;;;22.50;35.80;;;20.98;39.83;101849.03;12235084;19;20070;-77
2022/06/14 11:22:16;;;;;;;1.90;0.63;;;22.60;35.80;;;20.97;39.57;101839.34;12233649;19;20026;-77
2022/06/14 11:26:48;;;;;;;2.17;0.80;;;22.70;35.80;;;21.13;39.55;101854.03;12233735;19;20034;-76
2022/06/14 11:31:05;;;;;;;2.63;0.70;;;23.00;35.80;;;21.11;39.39;101843.53;12232410;19;20014;-76
2022/06/14 11:35:57;;;;;;;5.15;0.77;;;22.80;35.40;;;21.08;39.56;101841.13;12235922;19;20034;-77
2022/06/14 11:40:24;;;;;;;1.63;0.70;;;22.80;35.30;;;20.98;39.58;101838.41;12237041;19;20018;-77
2022/06/14 11:44:57;;;;;;;1.55;0.60;;;22.80;35.40;;;20.86;39.36;101817.31;12237302;19;20014;-77
2022/06/14 11:49:13;;;;;;;1.48;0.75;;;22.80;35.40;;;20.92;39.34;101822.09;12234091;19;20836;-77
2022/06/14 11:53:41;;;;;;;;;;;22.80;35.40;;;21.08;39.65;101849.09;12234009;19;20030;-77
2022/06/14 11:58:21;;;;;;;2.08;0.80;;;22.80;35.70;;;21.14;39.48;101835.34;12231626;19;19918;-77
2022/06/14 12:03:07;;;;;;;2.15;0.80;;;22.80;35.60;;;21.19;39.53;101817.16;12237458;19;20014;-77
2022/06/14 12:07:40;;;;;;;1.30;1.20;;;22.90;35.40;;;21.19;39.34;101803.06;12234011;19;20015;-77
2022/06/14 12:12:18;;;;;;;2.92;0.85;;;23.20;35.60;;;21.42;38.82;101825.94;12233100;19;20044;-77
2022/06/14 12:16:47;;;;;;;1.00;0.80;;;23.00;35.10;;;21.39;38.93;101815.56;12231150;19;20435;-77
2022/06/14 12:21:42;;;;;;;2.90;0.80;;;23.10;35.20;;;21.55;38.99;101822.22;12234101;19;20022;-77
2022/06/14 12:26:36;;;;;;;1.45;0.73;;;23.20;35.20;;;21.59;38.47;101827.16;12231944;19;20434;-77
2022/06/14 12:30:41;;;;;;;3.10;0.77;;;23.30;35.00;;;21.51;38.64;101805.72;12232032;19;20015;-77
2022/06/14 12:35:00;;;;;;;1.93;1.17;;;23.30;34.90;;;21.41;38.54;101784.41;12233758;19;20022;-77
2022/06/14 12:39:13;;;;;;;2.17;0.95;;;23.30;35.10;;;21.48;38.60;101791.84;12233093;19;20014;-77
2022/06/14 12:43:32;;;;;;;6.80;1.20;;;23.30;34.80;;;21.60;38.37;101817.38;12232892;19;20010;-77
2022/06/14 12:47:58;;;;;;;2.25;0.73;;;23.40;34.60;;;21.63;38.72;101807.34;12228936;19;20025;-77
2022/06/14 12:52:28;;;;;;;3.30;0.70;;;23.40;34.80;;;21.62;38.47;101779.06;12240416;19;20068;-77
2022/06/14 12:56:44;;;;;;;1.60;0.60;;;23.40;35.00;;;21.79;37.96;101790.06;12242460;19;20111;-77
2022/06/14 13:00:59;;;;;;;4.00;0.88;;;23.50;34.80;;;21.83;38.07;101787.00;12243390;19;20014;-77
2022/06/14 13:05:15;;;;;;;;;;;23.60;34.70;;;22.04;38.33;101796.78;12245528;19;20375;-76
2022/06/14 13:09:29;;;;;;;1.55;0.70;;;23.60;35.30;;;22.10;37.99;101788.25;12244704;19;19915;-77
2022/06/14 13:13:52;;;;;;;2.00;0.70;;;23.70;34.60;;;22.33;38.03;101798.72;12246074;19;20027;-77
2022/06/14 13:17:58;;;;;;;1.63;0.68;;;23.80;34.70;;;22.37;37.57;101774.38;12240047;19;20070;-77
2022/06/14 13:22:28;;;;;;;2.05;0.80;;;24.00;34.40;;;22.60;37.55;101795.44;12242913;19;20022;-76
2022/06/14 13:27:05;;;;;;;1.92;0.80;;;24.10;34.50;;;22.69;37.85;101779.47;12243784;19;20003;-77
2022/06/14 13:31:54;;;;;;;1.52;0.68;;;24.20;34.40;;;22.83;37.36;101783.56;12240648;19;20405;-77
2022/06/14 13:36:23;;;;;;;1.88;0.70;;;24.30;33.90;;;22.81;37.37;101766.88;12241604;19;20006;-77
2022/06/14 13:40:46;;;;;;;2.35;0.80;;;24.40;34.00;;;22.93;37.20;101776.44;12244046;19;20029;-77
2022/06/14 13:45:11;;;;;;;2.35;0.90;;;24.50;33.90;;;22.70;37.17;101727.91;12240958;19;20010;-77
2022/06/14 13:49:39;;;;;;;1.50;0.70;;;24.60;33.70;;;22.77;36.71;101738.00;12240533;19;20502;-77
2022/06/14 13:54:20;;;;;;;1.45;1.08;;;24.60;33.80;;;22.96;36.71;101757.53;12239757;19;20011;-77
2022/06/14 13:59:04;;;;;;;3.78;0.93;;;24.60;33.40;;;23.02;36.85;101768.59;12237915;19;20011;-77
2022/06/14 14:03:57;;;;;;;2.90;0.73;;;24.70;33.70;;;23.15;36.75;101758.50;12237382;19;20017;-77
2022/06/14 14:08:02;;;;;;;1.23;1.05;;;24.70;33.70;;;23.20;36.62;101753.59;12236342;19;20021;-77
2022/06/14 14:12:20;;;;;;;0.83;0.70;;;25.00;33.50;;;23.15;36.71;101740.69;12235550;19;20036;-76
2022/06/14 14:17:19;;;;;;;2.88;0.70;;;24.90;33.70;;;23.30;36.38;101756.22;12239138;19;20018;-77
2022/06/14 14:21:43;;;;;;;2.70;0.75;;;24.90;33.20;;;23.07;36.27;101715.75;12233315;19;20003;-77
2022/06/14 14:25:57;;;;;;;2.40;0.90;;;24.90;33.10;;;23.26;36.19;101749.50;12238320;19;20039;-77
2022/06/14 14:30:35;;;;;;;2.65;0.60;;;24.90;33.20;;;23.25;36.05;101727.34;12238338;19;20018;-77
2022/06/14 14:34:50;;;;;;;2.88;1.60;;;24.90;33.10;;;23.32;36.03;101725.78;12228523;19;20094;-77
2022/06/14 14:39:06;;;;;;;2.33;0.82;;;25.00;33.10;;;23.47;36.14;101738.69;12237317;19;20015;-77
2022/06/14 14:43:20;;;;;;;1.77;0.90;;;25.00;32.90;;;23.43;35.61;101719.44;12238296;19;20724;-77
2022/06/14 14:47:51;;;;;;;2.90;0.70;;;25.10;33.00;;;23.51;35.99;101732.88;12232851;19;20010;-77
2022/06/14 14:52:10;;;;;;;2.05;0.80;;;25.10;33.00;;;23.49;35.51;101726.03;12235147;19;20637;-77
2022/06/14 14:56:32;;;;;;;1.83;0.90;;;25.10;32.90;;;23.52;35.84;101728.41;12236460;19;20010;-77
2022/06/14 15:05:48;;;;;;;1.55;0.70;;;25.10;32.70;;;23.52;35.23;101713.25;12238182;19;20540;-77
2022/06/14 15:09:58;;;;;;;1.98;0.70;;;25.10;32.60;;;23.17;35.65;101663.28;12235360;19;20354;-77
2022/06/14 15:14:00;;;;;;;1.17;0.82;;;25.10;32.60;;;23.54;35.80;101721.09;12236575;19;20097;-77
2022/06/14 15:22:48;;;;;;;2.22;0.85;;;25.10;32.70;;;23.66;35.18;101703.13;12238005;19;20010;-77
2022/06/14 15:27:06;;;;;;;0.75;0.75;;;25.20;32.70;;;23.71;35.25;101698.16;12233928;19;20077;-77
2022/06/14 15:31:09;;;;;;;1.98;0.57;;;25.20;32.80;;;23.76;35.39;101703.91;12224183;19;20021;-76
2022/06/14 15:35:24;;;;;;;2.30;0.73;;;25.30;32.50;;;23.70;34.97;101710.66;12233122;19;20007;-77
2022/06/14 15:39:34;;;;;;;0.75;0.65;;;25.50;32.70;;;23.65;35.00;101704.91;12233634;19;20045;-76
2022/06/14 15:43:37;;;;;;;2.05;0.60;;;25.30;32.50;;;23.53;35.42;101701.59;12232378;19;20594;-77
2022/06/14 15:47:40;;;;;;;1.00;0.60;;;25.30;32.50;;;23.41;35.13;101684.94;12232227;19;20022;-76
2022/06/14 15:51:42;;;;;;;0.70;0.50;;;25.20;32.40;;;23.16;35.50;101670.41;12223913;19;20123;-77
2022/06/14 15:55:51;;;;;;;1.08;0.55;;;25.10;32.50;;;23.29;35.33;101690.59;12228298;19;20023;-78
2022/06/14 16:00:17;;;;;;;1.08;0.60;;;25.30;32.80;;;23.20;34.94;101692.28;12233355;19;20025;-77
2022/06/14 16:04:26;;;;;;;0.57;0.50;;;25.00;32.60;;;22.86;35.48;101650.09;12233251;19;20038;-78
2022/06/14 16:08:32;;;;;;;2.05;0.80;;;24.90;32.70;;;22.99;35.42;101678.31;12235905;19;20086;-77
2022/06/14 16:12:49;;;;;;;0.60;0.45;;;24.70;32.70;;;22.92;35.25;101678.00;12240535;19;20562;-78
2022/06/14 16:17:14;;;;;;;2.13;0.88;;;24.70;32.80;;;22.90;35.13;101683.47;12236558;19;20015;-77
2022/06/14 16:21:44;;;;;;;0.60;0.60;;;24.80;32.90;;;22.91;35.39;101684.31;12238107;19;20025;-77
2022/06/14 16:25:55;;;;;;;0.85;0.70;;;24.60;32.80;;;23.01;35.49;101686.97;12206527;19;20010;-78
2022/06/14 16:30:16;;;;;;;1.42;0.82;;;24.70;33.10;;;23.04;35.37;101684.06;12207330;19;20025;-78
2022/06/14 16:34:47;;;;;;;0.82;0.57;;;24.70;33.00;;;23.05;35.44;101678.56;12215935;19;20011;-78
2022/06/14 16:39:36;;;;;;;0.82;0.65;;;24.70;33.10;;;23.10;35.27;101686.97;12224269;19;20477;-76
2022/06/14 16:43:56;;;;;;;2.20;0.68;;;24.70;33.20;;;23.10;35.12;101686.13;12223795;19;20041;-77
2022/06/14 16:48:31;;;;;;;0.95;0.57;;;24.70;33.20;;;23.08;35.04;101685.44;12216663;19;20022;-78
2022/06/14 16:53:29;;;;;;;1.50;0.60;;;24.80;32.80;;;23.12;35.25;101694.84;12217436;19;20046;-77
2022/06/14 16:58:04;;;;;;;2.47;0.88;;;24.70;32.80;;;23.06;35.53;101690.91;12219933;19;20476;-76
2022/06/14 17:02:39;;;;;;;4.00;0.63;;;24.70;33.10;;;23.00;35.23;101691.47;12223335;19;20014;-76
2022/06/14 17:06:54;;;;;;;1.85;0.90;;;24.70;33.00;;;22.87;35.15;101696.22;12221678;19;20017;-76
2022/06/14 17:11:16;;;;;;;1.90;0.80;;;24.60;33.00;;;22.73;35.34;101678.84;12222066;19;20014;-76
2022/06/14 17:15:31;;;;;;;0.88;0.60;;;24.50;33.00;;;22.66;35.23;101672.41;12217130;19;20019;-79
2022/06/14 17:20:19;;;;;;;0.77;0.60;;;24.50;33.00;;;22.75;35.46;101698.19;12220703;19;20451;-78
2022/06/14 17:25:09;;;;;;;0.85;0.47;;;24.60;33.20;;;22.55;35.64;101662.75;12216541;19;20099;-77
2022/06/14 17:34:00;;;;;;;2.83;0.80;;;24.40;33.00;;;22.56;35.37;101698.19;12217703;19;20015;-76
2022/06/14 17:38:14;;;;;;;1.45;0.60;;;24.30;33.30;;;22.40;35.37;101686.25;12222053;19;20014;-77
2022/06/14 17:42:25;;;;;;;1.08;0.77;;;24.20;33.20;;;22.41;35.52;101695.91;12231295;19;20018;-76
2022/06/14 17:46:32;;;;;;;3.70;0.80;;;24.20;33.30;;;22.29;35.78;101689.88;12229709;19;20037;-77
2022/06/14 17:51:01;;;;;;;2.60;0.82;;;24.10;33.30;;;22.25;35.44;101690.28;12228143;19;20014;-76
2022/06/14 17:55:20;;;;;;;1.10;0.43;;;24.00;33.30;;;22.04;35.75;101688.53;12224208;19;20018;-77
2022/06/14 18:00:06;;;;;;;1.35;0.80;;;24.00;33.20;;;21.98;35.87;101720.16;12224367;19;20021;-78
2022/06/14 18:04:14;;;;;;;1.15;0.68;;;23.90;33.30;;;21.69;35.87;101689.00;12234732;19;20015;-77
2022/06/14 18:08:31;;;;;;;2.38;1.05;;;23.70;33.40;;;21.76;35.98;101713.22;12227023;19;20021;-76
2022/06/14 18:13:02;;;;;;;0.85;0.50;;;23.60;33.40;;;21.60;36.22;101703.06;12229738;19;20082;-76
2022/06/14 18:17:06;;;;;;;0.50;0.50;;;23.50;33.60;;;21.63;35.75;101716.94;12228287;19;20034;-77
2022/06/14 18:21:18;;;;;;;0.73;0.73;;;23.40;33.70;;;21.54;35.94;101704.44;12231063;19;20933;-78